Time;durP1;ratioP1;P1;durP2;ratioP2;P2;SDS_P1;SDS_P2;PMS_P1;PMS_P2;Temp;Humidity;BMP_temperature;BMP_pressure;BME280_temperature;BME280_humidity;BME280_pressure;Samples;Min_cycle;Max_cycle;Signal;HPM_P1;HPM_P2
2022/07/17 00:00:46;;;;;;;;;;;;;;;16.84;79.43;100146.84;1740417;81;20572;-80
2022/07/17 00:03:46;;;;;;;;;;;;;;;16.84;79.29;100148.73;1744752;82;20197;-79
2022/07/17 00:06:50;;;;;;;;;;;;;;;16.80;78.85;100146.13;1745629;82;20200;-79
2022/07/17 00:09:58;;;;;;;;;;;;;;;16.73;79.05;100146.14;1745973;82;20193;-80
2022/07/17 00:13:04;;;;;;;;;;;;;;;16.69;79.37;100139.87;1744894;82;20229;-80
2022/07/17 00:16:09;;;;;;;;;;;;;;;16.66;80.07;100136.19;1739804;82;20185;-79
2022/07/17 00:19:13;;;;;;;;;;;;;;;16.68;80.43;100140.94;1739148;82;20510;-80
2022/07/17 00:22:17;;;;;;;;;;;;;;;16.70;80.79;100138.29;1739076;82;20211;-80
2022/07/17 00:25:24;;;;;;;;;;;;;;;16.74;80.97;100131.80;1738369;82;20592;-80
2022/07/17 00:28:28;;;;;;;;;;;;;;;16.77;81.25;100132.21;1738198;82;20195;-80
2022/07/17 00:31:26;;;;;;;;;;;;;;;16.79;81.40;100134.73;1737634;82;20229;-80
2022/07/17 00:34:31;;;;;;;;;;;;;;;16.80;81.42;100131.78;1738252;82;20205;-80
2022/07/17 00:37:35;;;;;;;;;;;;;;;16.80;81.45;100133.16;1738320;82;20210;-79
2022/07/17 00:40:40;;;;;;;;;;;;;;;16.82;81.43;100128.78;1737569;82;20194;-80
2022/07/17 00:43:45;;;;;;;;;;;;;;;16.80;81.51;100126.80;1737853;82;20581;-80
2022/07/17 00:46:50;;;;;;;;;;;;;;;16.78;81.46;100127.53;1739007;82;20197;-80
2022/07/17 00:49:56;;;;;;;;;;;;;;;16.74;81.40;100129.03;1738957;82;20355;-79
2022/07/17 00:53:01;;;;;;;;;;;;;;;16.70;81.42;100137.41;1738227;82;20201;-79
2022/07/17 00:56:12;;;;;;;;;;;;;;;16.63;81.62;100129.71;1737520;82;20209;-79
2022/07/17 00:59:17;;;;;;;;;;;;;;;16.56;82.00;100127.84;1739421;81;20593;-79
2022/07/17 01:02:22;;;;;;;;;;;;;;;16.52;82.58;100121.59;1759561;81;20212;-81
2022/07/17 01:05:28;;;;;;;;;;;;;;;16.52;83.03;100118.30;1729223;83;20196;-81
2022/07/17 01:08:35;;;;;;;;;;;;;;;16.68;82.54;100125.22;1760151;81;20215;-79
2022/07/17 01:11:40;;;;;;;;;;;;;;;16.50;83.66;100126.47;1731132;83;20222;-79
2022/07/17 01:14:45;;;;;;;;;;;;;;;16.54;83.86;100123.59;1751201;81;20518;-80
2022/07/17 01:17:49;;;;;;;;;;;;;;;16.53;84.21;100124.13;1725118;83;20192;-80
2022/07/17 01:20:55;;;;;;;;;;;;;;;16.52;84.63;100119.68;1726106;83;20195;-80
2022/07/17 01:24:00;;;;;;;;;;;;;;;16.55;84.59;100120.59;1726233;83;20155;-80
2022/07/17 01:27:05;;;;;;;;;;;;;;;16.51;84.88;100127.63;1725936;83;20199;-81
2022/07/17 01:30:10;;;;;;;;;;;;;;;16.56;84.56;100131.98;1726335;82;20206;-81
2022/07/17 01:33:15;;;;;;;;;;;;;;;16.51;84.92;100122.64;1726209;82;20215;-80
2022/07/17 01:36:20;;;;;;;;;;;;;;;16.50;85.01;100122.33;1726321;83;20479;-80
2022/07/17 01:42:48;;;;;;;;;;;;;;;16.54;84.22;100118.91;1726425;83;20457;-80
2022/07/17 01:45:53;;;;;;;;;;;;;;;16.43;83.97;100112.72;1720867;82;20203;-80
2022/07/17 01:48:56;;;;;;;;;;;;;;;16.29;84.94;100105.56;1715982;83;20196;-80
2022/07/17 01:52:01;;;;;;;;;;;;;;;16.25;85.29;100104.30;1716048;83;20191;-80
2022/07/17 01:55:05;;;;;;;;;;;;;;;16.22;85.52;100104.72;1715728;83;20212;-80
2022/07/17 01:58:11;;;;;;;;;;;;;;;16.18;86.04;100106.22;1714619;83;20205;-80
2022/07/17 02:01:15;;;;;;;;;;;;;;;16.12;87.04;100096.06;1716154;83;20179;-81
2022/07/17 02:04:13;;;;;;;;;;;;;;;16.12;87.94;100104.34;1715418;83;20227;-80
2022/07/17 02:07:17;;;;;;;;;;;;;;;16.13;88.33;100104.64;1715543;83;20620;-81
2022/07/17 02:10:22;;;;;;;;;;;;;;;16.16;88.48;100100.08;1715828;83;20616;-80
2022/07/17 02:13:25;;;;;;;;;;;;;;;16.17;88.51;100105.91;1716267;83;20640;-80
2022/07/17 02:16:30;;;;;;;;;;;;;;;16.22;88.51;100108.86;1716482;83;20611;-80
2022/07/17 02:19:37;;;;;;;;;;;;;;;16.29;88.21;100108.31;1716154;83;20243;-80
2022/07/17 02:22:42;;;;;;;;;;;;;;;16.42;88.13;100113.78;1716284;83;20191;-80
2022/07/17 02:25:47;;;;;;;;;;;;;;;16.71;87.35;100115.66;1715971;83;20603;-80
2022/07/17 02:28:51;;;;;;;;;;;;;;;17.06;85.70;100114.17;1714648;83;20180;-80
2022/07/17 02:31:56;;;;;;;;;;;;;;;17.49;83.70;100120.31;1715890;83;20191;-80
2022/07/17 02:35:03;;;;;;;;;;;;;;;17.97;81.96;100116.05;1715421;83;20192;-80
2022/07/17 02:38:08;;;;;;;;;;;;;;;18.47;79.41;100122.81;1715219;83;20227;-80
2022/07/17 02:41:13;;;;;;;;;;;;;;;18.88;77.35;100118.77;1716115;83;20188;-80
2022/07/17 02:44:18;;;;;;;;;;;;;;;19.31;75.63;100112.13;1716031;82;20191;-80
2022/07/17 02:47:34;;;;;;;;;;;;;;;19.73;73.88;100123.18;1714511;83;20954;-80
2022/07/17 02:50:39;;;;;;;;;;;;;;;20.16;72.15;100113.06;1716227;83;20192;-80
2022/07/17 02:53:43;;;;;;;;;;;;;;;20.52;70.14;100112.48;1716214;83;20207;-80
2022/07/17 02:56:48;;;;;;;;;;;;;;;20.81;68.95;100116.11;1716106;83;20192;-80
2022/07/17 02:59:51;;;;;;;;;;;;;;;21.15;68.03;100116.18;1716374;83;20179;-80
2022/07/17 03:02:56;;;;;;;;;;;;;;;21.54;66.89;100111.59;1716241;83;20184;-80
2022/07/17 03:05:59;;;;;;;;;;;;;;;21.91;65.69;100115.23;1715084;83;21043;-80
2022/07/17 03:09:05;;;;;;;;;;;;;;;22.25;64.42;100118.80;1716176;83;20203;-80
2022/07/17 03:12:11;;;;;;;;;;;;;;;22.52;63.48;100113.31;1715543;83;20188;-80
2022/07/17 03:15:17;;;;;;;;;;;;;;;22.71;62.65;100113.27;1716871;83;20197;-80
2022/07/17 03:18:22;;;;;;;;;;;;;;;22.81;62.30;100116.72;1716806;83;20201;-80
2022/07/17 03:21:27;;;;;;;;;;;;;;;22.84;62.16;100118.16;1716711;83;20221;-80
2022/07/17 03:24:32;;;;;;;;;;;;;;;22.86;62.27;100113.98;1717867;83;20193;-80
2022/07/17 03:27:38;;;;;;;;;;;;;;;22.84;62.47;100108.39;1717211;83;20209;-80
2022/07/17 03:30:42;;;;;;;;;;;;;;;22.88;62.80;100109.56;1736366;82;20190;-80
2022/07/17 03:33:47;;;;;;;;;;;;;;;22.94;62.40;100112.16;1743806;82;20201;-80
2022/07/17 03:36:52;;;;;;;;;;;;;;;22.96;62.24;100092.39;1744334;82;20580;-80
2022/07/17 03:39:57;;;;;;;;;;;;;;;23.00;62.30;100085.72;1745399;82;20190;-79
2022/07/17 03:43:02;;;;;;;;;;;;;;;22.97;62.19;100080.69;1744796;82;20589;-80
2022/07/17 03:46:06;;;;;;;;;;;;;;;22.92;62.03;100068.92;1745298;82;20945;-79
2022/07/17 03:49:10;;;;;;;;;;;;;;;22.88;61.90;100071.36;1744503;81;20198;-80
2022/07/17 03:52:15;;;;;;;;;;;;;;;22.71;62.12;100076.19;1743904;82;20229;-80
2022/07/17 03:55:19;;;;;;;;;;;;;;;22.44;63.38;100076.14;1745397;82;20634;-81
2022/07/17 03:58:24;;;;;;;;;;;;;;;22.38;64.20;100077.19;1744461;82;20194;-80
2022/07/17 04:01:30;;;;;;;;;;;;;;;22.31;64.68;100077.40;1745633;82;20209;-80
2022/07/17 04:04:35;;;;;;;;;;;;;;;22.27;65.22;100078.17;1744957;82;20205;-80
2022/07/17 04:07:40;;;;;;;;;;;;;;;22.25;65.81;100074.79;1743581;82;20201;-80
2022/07/17 04:10:47;;;;;;;;;;;;;;;22.41;65.83;100072.50;1744995;82;20224;-80
2022/07/17 04:13:52;;;;;;;;;;;;;;;22.54;65.50;100072.66;1743661;82;20204;-80
2022/07/17 04:16:56;;;;;;;;;;;;;;;22.59;65.39;100079.69;1744720;82;20632;-80
2022/07/17 04:20:02;;;;;;;;;;;;;;;22.56;65.55;100078.25;1745604;82;20197;-80
2022/07/17 04:23:07;;;;;;;;;;;;;;;22.58;65.77;100071.02;1744680;82;20197;-80
2022/07/17 04:26:12;;;;;;;;;;;;;;;22.50;66.39;100070.94;1745611;82;20201;-80
2022/07/17 04:29:19;;;;;;;;;;;;;;;22.41;66.42;100067.77;1741111;82;20465;-80
2022/07/17 04:32:25;;;;;;;;;;;;;;;22.37;67.09;100076.35;1716162;83;20201;-80
2022/07/17 04:35:31;;;;;;;;;;;;;;;22.36;67.36;100069.66;1715959;83;20174;-81
2022/07/17 04:38:36;;;;;;;;;;;;;;;22.32;67.35;100062.91;1716088;83;20237;-80
2022/07/17 04:41:40;;;;;;;;;;;;;;;22.33;67.65;100074.34;1717668;83;20194;-81
2022/07/17 04:44:46;;;;;;;;;;;;;;;22.42;67.53;100068.61;1718105;83;20585;-81
2022/07/17 04:47:50;;;;;;;;;;;;;;;22.59;67.30;100072.16;1718223;82;20202;-80
2022/07/17 04:50:54;;;;;;;;;;;;;;;22.83;66.80;100077.44;1717728;83;20174;-80
2022/07/17 04:53:58;;;;;;;;;;;;;;;22.99;65.82;100075.11;1713675;84;20228;-81
2022/07/17 04:57:03;;;;;;;;;;;;;;;23.03;65.50;100072.09;1717727;83;20210;-81
2022/07/17 05:00:11;;;;;;;;;;;;;;;23.10;65.71;100065.76;1719083;82;20584;-81
2022/07/17 05:03:14;;;;;;;;;;;;;;;23.20;65.51;100056.08;1719657;83;20213;-78
2022/07/17 05:06:19;;;;;;;;;;;;;;;23.38;64.47;100059.02;1719374;83;20609;-80
2022/07/17 05:09:24;;;;;;;;;;;;;;;23.58;63.82;100072.29;1719191;83;20201;-79
2022/07/17 05:12:28;;;;;;;;;;;;;;;23.80;62.50;100080.55;1718615;83;20222;-80
2022/07/17 05:15:34;;;;;;;;;;;;;;;24.04;61.92;100078.18;1735123;82;20233;-80
2022/07/17 05:18:38;;;;;;;;;;;;;;;24.18;61.51;100081.33;1745932;82;20216;-81
2022/07/17 05:21:42;;;;;;;;;;;;;;;24.31;61.15;100085.03;1747480;82;20177;-81
2022/07/17 05:24:47;;;;;;;;;;;;;;;24.53;60.69;100082.09;1717606;83;20668;-81
2022/07/17 05:27:53;;;;;;;;;;;;;;;24.71;58.69;100074.59;1717031;83;20550;-80
2022/07/17 05:30:57;;;;;;;;;;;;;;;24.80;57.54;100066.52;1718742;83;20270;-81
2022/07/17 05:34:02;;;;;;;;;;;;;;;24.87;56.50;100051.69;1719184;83;20200;-81
2022/07/17 05:37:05;;;;;;;;;;;;;;;24.92;56.61;100055.05;1719099;83;20175;-80
2022/07/17 05:40:11;;;;;;;;;;;;;;;24.96;55.77;100057.58;1717530;83;20179;-80
2022/07/17 05:43:09;;;;;;;;;;;;;;;25.03;55.02;100070.76;1719426;83;20231;-80
2022/07/17 05:46:07;;;;;;;;;;;;;;;25.20;55.41;100077.50;1719290;83;20194;-81
2022/07/17 05:49:12;;;;;;;;;;;;;;;25.38;53.85;100082.55;1736134;80;20230;-80
2022/07/17 05:52:17;;;;;;;;;;;;;;;25.52;52.55;100078.63;1727875;83;20189;-80
2022/07/17 05:55:22;;;;;;;;;;;;;;;25.72;51.93;100080.00;1744479;82;20205;-80
2022/07/17 05:58:26;;;;;;;;;;;;;;;25.89;51.09;100088.71;1740976;82;20562;-80
2022/07/17 06:01:29;;;;;;;;;;;;;;;26.03;51.10;100080.56;1740896;82;20200;-80
2022/07/17 06:04:34;;;;;;;;;;;;;;;26.21;49.22;100080.78;1769664;81;20191;-80
2022/07/17 06:07:39;;;;;;;;;;;;;;;26.45;50.30;100075.39;1770911;81;20586;-80
2022/07/17 06:10:44;;;;;;;;;;;;;;;26.65;50.06;100068.83;1728056;83;20177;-80
2022/07/17 06:13:48;;;;;;;;;;;;;;;26.87;47.38;100073.21;1742746;82;20601;-80
2022/07/17 06:16:53;;;;;;;;;;;;;;;26.94;47.07;100082.13;1771268;81;20223;-80
2022/07/17 06:19:58;;;;;;;;;;;;;;;27.00;44.82;100098.64;1714055;83;20253;-80
2022/07/17 06:23:02;;;;;;;;;;;;;;;27.03;42.38;100093.59;1721970;82;20201;-80
2022/07/17 06:26:07;;;;;;;;;;;;;;;27.16;42.56;100098.02;1735364;81;20646;-81
2022/07/17 06:29:12;;;;;;;;;;;;;;;27.14;42.10;100094.65;1726985;81;20190;-82
2022/07/17 06:32:16;;;;;;;;;;;;;;;27.07;42.87;100089.91;1760801;81;20471;-80
2022/07/17 06:35:21;;;;;;;;;;;;;;;27.02;42.49;100096.96;1761540;81;20183;-80
2022/07/17 06:38:27;;;;;;;;;;;;;;;26.93;40.43;100102.34;1768637;81;20258;-80
2022/07/17 06:41:30;;;;;;;;;;;;;;;26.79;39.75;100107.48;1740724;82;20190;-80
2022/07/17 06:44:34;;;;;;;;;;;;;;;26.64;39.24;100107.84;1736611;82;20221;-79
2022/07/17 06:47:39;;;;;;;;;;;;;;;26.55;40.70;100109.56;1727758;83;20206;-80
2022/07/17 06:50:44;;;;;;;;;;;;;;;26.64;42.32;100107.84;1732900;81;20209;-80
2022/07/17 06:53:48;;;;;;;;;;;;;;;26.75;43.69;100110.86;1740178;82;20228;-80
2022/07/17 06:56:53;;;;;;;;;;;;;;;26.82;44.20;100111.09;1720807;82;20268;-80
2022/07/17 06:59:58;;;;;;;;;;;;;;;26.83;43.12;100107.19;1755443;81;20243;-80
2022/07/17 07:03:02;;;;;;;;;;;;;;;26.81;43.05;100103.24;1736410;82;20232;-80
2022/07/17 07:06:11;;;;;;;;;;;;;;;26.78;43.26;100100.20;1773169;81;20204;-79
2022/07/17 07:09:17;;;;;;;;;;;;;;;26.78;43.09;100082.80;1756787;82;20209;-79
2022/07/17 07:12:22;;;;;;;;;;;;;;;26.75;43.03;100079.16;1757076;82;20525;-80
2022/07/17 07:15:27;;;;;;;;;;;;;;;26.70;43.21;100070.20;1738596;82;20718;-79
2022/07/17 07:18:32;;;;;;;;;;;;;;;26.63;42.62;100075.31;1726325;83;20206;-81
2022/07/17 07:21:37;;;;;;;;;;;;;;;26.59;43.07;100074.77;1726464;83;20195;-77
2022/07/17 07:24:42;;;;;;;;;;;;;;;26.73;42.75;100069.64;1727255;83;20195;-78
2022/07/17 07:27:47;;;;;;;;;;;;;;;26.92;42.35;100067.56;1726849;83;20595;-80
2022/07/17 07:30:53;;;;;;;;;;;;;;;27.06;41.80;100075.61;1726210;83;20202;-80
2022/07/17 07:33:56;;;;;;;;;;;;;;;27.27;41.16;100083.33;1725838;83;20245;-81
2022/07/17 07:37:01;;;;;;;;;;;;;;;27.39;40.35;100080.17;1726509;83;20203;-81
2022/07/17 07:40:06;;;;;;;;;;;;;;;27.62;40.11;100092.58;1726265;83;20175;-81
2022/07/17 07:43:11;;;;;;;;;;;;;;;27.86;39.25;100095.50;1725892;83;20211;-80
2022/07/17 07:46:15;;;;;;;;;;;;;;;27.95;38.92;100095.97;1726907;83;20207;-79
2022/07/17 07:49:19;;;;;;;;;;;;;;;28.03;38.58;100101.48;1727271;83;20627;-80
2022/07/17 07:52:25;;;;;;;;;;;;;;;28.16;39.29;100099.38;1726750;83;20226;-80
2022/07/17 07:55:30;;;;;;;;;;;;;;;28.21;40.72;100102.13;1727469;83;20214;-81
2022/07/17 07:58:33;;;;;;;;;;;;;;;28.17;40.84;100105.27;1726409;83;20191;-79
2022/07/17 08:01:37;;;;;;;;;;;;;;;28.13;41.23;100111.78;1727518;83;20203;-80
2022/07/17 08:04:43;;;;;;;;;;;;;;;28.03;40.89;100110.75;1727809;83;20195;-80
2022/07/17 08:07:43;;;;;;;;;;;;;;;27.99;40.89;100118.67;1725778;83;20232;-81
2022/07/17 08:10:48;;;;;;;;;;;;;;;27.90;41.52;100119.05;1722589;83;20195;-80
2022/07/17 08:13:54;;;;;;;;;;;;;;;27.81;41.53;100113.79;1722446;83;20627;-80
2022/07/17 08:17:00;;;;;;;;;;;;;;;27.65;39.62;100105.48;1723553;83;20207;-80
2022/07/17 08:20:05;;;;;;;;;;;;;;;27.38;40.16;100107.38;1723216;83;20207;-80
2022/07/17 08:23:11;;;;;;;;;;;;;;;27.34;40.31;100111.09;1723759;83;20179;-81
2022/07/17 08:26:15;;;;;;;;;;;;;;;27.25;43.26;100101.05;1723909;83;20199;-81
2022/07/17 08:29:20;;;;;;;;;;;;;;;27.02;44.77;100098.36;1724149;83;20254;-80
2022/07/17 08:32:27;;;;;;;;;;;;;;;26.79;45.06;100099.06;1722585;83;20207;-81
2022/07/17 08:35:32;;;;;;;;;;;;;;;26.49;46.05;100096.12;1723979;83;20203;-81
2022/07/17 08:38:37;;;;;;;;;;;;;;;26.34;46.95;100086.89;1723283;83;20603;-82
2022/07/17 08:41:46;;;;;;;;;;;;;;;26.28;46.98;100081.03;1722317;83;20586;-80
2022/07/17 08:44:51;;;;;;;;;;;;;;;26.17;47.38;100092.28;1723715;83;20195;-79
2022/07/17 08:47:58;;;;;;;;;;;;;;;26.14;47.75;100102.66;1723326;83;20179;-79
2022/07/17 08:51:06;;;;;;;;;;;;;;;26.14;47.01;100108.82;1723069;83;20643;-80
2022/07/17 08:54:04;;;;;;;;;;;;;;;26.06;46.55;100118.64;1722980;83;20195;-79
2022/07/17 08:56:56;;;;;;;;;;;;;;;25.88;47.23;100113.09;1723542;83;20195;-79
2022/07/17 08:59:59;;;;;;;;;;;;;;;25.69;47.87;100128.20;1723600;83;20262;-80
2022/07/17 09:03:07;;;;;;;;;;;;;;;25.50;48.74;100135.45;1723119;83;20227;-80
2022/07/17 09:06:15;;;;;;;;;;;;;;;25.34;48.39;100147.78;1722191;83;20667;-79
2022/07/17 09:09:15;;;;;;;;;;;;;;;25.12;48.21;100141.84;1722817;83;20219;-81
2022/07/17 09:12:21;;;;;;;;;;;;;;;24.96;49.02;100131.72;1726389;83;20179;-81
2022/07/17 09:15:27;;;;;;;;;;;;;;;24.84;50.12;100133.91;1724481;82;20188;-80
2022/07/17 09:18:32;;;;;;;;;;;;;;;24.60;49.02;100130.19;1755500;82;20228;-80
2022/07/17 09:21:36;;;;;;;;;;;;;;;24.33;48.68;100130.89;1723742;83;20207;-80
2022/07/17 09:24:57;;;;;;;;;;;;;;;24.12;49.35;100120.14;1733003;82;20221;-80
2022/07/17 09:28:01;;;;;;;;;;;;;;;23.96;50.07;100119.22;1730674;83;20256;-80
2022/07/17 09:31:05;;;;;;;;;;;;;;;23.85;49.90;100128.62;1733967;82;20205;-80
2022/07/17 09:34:09;;;;;;;;;;;;;;;23.73;50.23;100134.97;1756534;82;20491;-79
2022/07/17 09:37:13;;;;;;;;;;;;;;;23.59;50.31;100135.94;1755624;82;20188;-80
2022/07/17 09:43:50;;;;;;;;;;;;;;;23.39;52.17;100128.23;1755377;82;20649;-81
2022/07/17 09:46:54;;;;;;;;;;;;;;;23.30;50.99;100132.61;1756916;82;20188;-80
2022/07/17 09:50:01;;;;;;;;;;;;;;;23.22;52.28;100129.73;1756294;82;20213;-80
2022/07/17 09:53:05;;;;;;;;;;;;;;;23.17;52.41;100142.25;1755957;82;20216;-80
2022/07/17 09:56:08;;;;;;;;;;;;;;;23.13;52.07;100150.30;1756252;82;20189;-80
2022/07/17 09:59:18;;;;;;;;;;;;;;;23.12;55.12;100151.96;1756643;82;20185;-81
2022/07/17 10:02:22;;;;;;;;;;;;;;;23.06;60.40;100144.09;1756069;82;20193;-80
2022/07/17 10:05:26;;;;;;;;;;;;;;;22.82;63.19;100160.77;1756745;82;20204;-80
2022/07/17 10:08:24;;;;;;;;;;;;;;;22.58;63.30;100165.78;1757475;82;20197;-80
2022/07/17 10:11:30;;;;;;;;;;;;;;;22.48;62.88;100158.13;1754736;82;20207;-80
2022/07/17 10:14:38;;;;;;;;;;;;;;;22.46;62.26;100146.41;1750612;82;20188;-80
2022/07/17 10:17:41;;;;;;;;;;;;;;;22.45;62.72;100148.91;1727072;83;20584;-80
2022/07/17 10:20:44;;;;;;;;;;;;;;;22.43;63.01;100147.75;1727096;83;20200;-80
2022/07/17 10:23:52;;;;;;;;;;;;;;;22.43;62.69;100146.36;1725694;83;20183;-80
2022/07/17 10:26:57;;;;;;;;;;;;;;;22.41;62.42;100146.34;1727207;83;20204;-80
2022/07/17 10:30:13;;;;;;;;;;;;;;;22.34;62.93;100145.67;1729042;83;20201;-80
2022/07/17 10:33:22;;;;;;;;;;;;;;;22.22;63.73;100142.18;1730985;83;20748;-80
2022/07/17 10:36:27;;;;;;;;;;;;;;;22.10;64.32;100155.62;1732469;83;20189;-80
2022/07/17 10:39:32;;;;;;;;;;;;;;;21.99;64.49;100166.32;1730794;83;20197;-80
2022/07/17 10:42:52;;;;;;;;;;;;;;;21.93;64.57;100189.63;1730822;83;20632;-80
2022/07/17 10:45:56;;;;;;;;;;;;;;;21.84;64.39;100195.33;1751087;82;20343;-81
2022/07/17 10:49:01;;;;;;;;;;;;;;;21.67;65.19;100200.32;1755192;82;20576;-80
2022/07/17 10:52:06;;;;;;;;;;;;;;;21.50;66.35;100213.39;1756193;82;20458;-80
2022/07/17 10:55:28;;;;;;;;;;;;;;;21.28;67.13;100212.38;1756297;82;20177;-80
2022/07/17 10:58:35;;;;;;;;;;;;;;;21.06;68.31;100224.19;1755814;82;20667;-81
2022/07/17 11:01:39;;;;;;;;;;;;;;;20.88;68.68;100221.58;1755470;81;20224;-79
2022/07/17 11:04:45;;;;;;;;;;;;;;;20.73;70.70;100208.77;1756891;82;20197;-79
2022/07/17 11:08:00;;;;;;;;;;;;;;;20.57;71.89;100208.44;1756151;82;20196;-79
2022/07/17 11:11:04;;;;;;;;;;;;;;;20.41;72.86;100214.70;1755183;81;20196;-79
2022/07/17 11:14:16;;;;;;;;;;;;;;;20.26;73.58;100215.74;1752596;82;20216;-80
2022/07/17 11:17:20;;;;;;;;;;;;;;;20.09;75.44;100205.89;1729344;83;20189;-79
2022/07/17 11:20:24;;;;;;;;;;;;;;;19.86;77.19;100185.94;1717920;83;20192;-78
2022/07/17 11:23:31;;;;;;;;;;;;;;;19.69;79.10;100176.08;1729610;83;20220;-81
2022/07/17 11:26:36;;;;;;;;;;;;;;;19.54;81.10;100167.34;1729781;83;20460;-79
2022/07/17 11:29:40;;;;;;;;;;;;;;;19.39;81.70;100147.84;1731139;83;20487;-81
2022/07/17 11:32:46;;;;;;;;;;;;;;;19.27;83.23;100148.89;1729301;83;20229;-78
2022/07/17 11:35:57;;;;;;;;;;;;;;;19.18;84.33;100133.67;1729340;83;20308;-80
2022/07/17 11:39:02;;;;;;;;;;;;;;;19.07;84.83;100144.50;1729227;83;20232;-79
2022/07/17 11:42:07;;;;;;;;;;;;;;;19.02;85.15;100149.91;1729518;83;20176;-79
2022/07/17 11:45:14;;;;;;;;;;;;;;;19.04;85.29;100158.81;1741537;82;20221;-81
2022/07/17 11:48:18;;;;;;;;;;;;;;;19.10;85.42;100167.59;1753616;82;20216;-80
2022/07/17 11:51:21;;;;;;;;;;;;;;;19.18;84.84;100168.33;1753970;82;20247;-80
2022/07/17 11:54:26;;;;;;;;;;;;;;;19.26;84.66;100159.14;1753752;82;20201;-79
2022/07/17 11:57:34;;;;;;;;;;;;;;;19.33;83.73;100161.25;1752695;82;20228;-79
2022/07/17 12:00:37;;;;;;;;;;;;;;;19.39;83.60;100158.09;1734718;82;20183;-79
2022/07/17 12:03:42;;;;;;;;;;;;;;;19.46;84.13;100162.13;1722271;83;20207;-81
2022/07/17 12:06:48;;;;;;;;;;;;;;;19.54;83.56;100154.31;1723462;83;20199;-81
2022/07/17 12:09:53;;;;;;;;;;;;;;;19.62;82.90;100148.45;1722123;83;20226;-80
2022/07/17 12:13:11;;;;;;;;;;;;;;;19.76;82.62;100153.23;1722870;83;20210;-80
2022/07/17 12:16:35;;;;;;;;;;;;;;;19.93;80.62;100149.18;1724562;82;20239;-80
2022/07/17 12:19:40;;;;;;;;;;;;;;;20.04;78.09;100144.19;1723935;83;20203;-82
2022/07/17 12:22:52;;;;;;;;;;;;;;;20.15;78.14;100141.09;1723632;83;20183;-80
2022/07/17 12:25:57;;;;;;;;;;;;;;;20.24;77.08;100134.63;1723910;83;20199;-79
2022/07/17 12:29:02;;;;;;;;;;;;;;;20.30;75.81;100136.41;1724109;83;20223;-80
2022/07/17 12:32:14;;;;;;;;;;;;;;;20.35;75.59;100126.25;1723882;83;20570;-80
2022/07/17 12:35:20;;;;;;;;;;;;;;;20.35;75.77;100120.70;1724141;83;20199;-80
2022/07/17 12:38:25;;;;;;;;;;;;;;;20.35;76.36;100115.69;1723131;83;20610;-80
2022/07/17 12:41:30;;;;;;;;;;;;;;;20.40;76.09;100125.52;1723793;83;20251;-80
2022/07/17 12:44:35;;;;;;;;;;;;;;;20.44;76.64;100125.33;1723025;82;20183;-80
2022/07/17 12:47:40;;;;;;;;;;;;;;;20.52;76.18;100113.88;1723541;83;20199;-81
2022/07/17 12:50:45;;;;;;;;;;;;;;;20.60;75.58;100114.01;1724219;83;20223;-81
2022/07/17 12:53:51;;;;;;;;;;;;;;;20.66;75.18;100110.27;1722851;83;20199;-81
2022/07/17 12:56:56;;;;;;;;;;;;;;;20.71;75.19;100112.30;1723551;83;20286;-80
2022/07/17 13:00:00;;;;;;;;;;;;;;;20.82;75.65;100116.95;1724308;82;20199;-80
2022/07/17 13:03:04;;;;;;;;;;;;;;;20.96;73.43;100112.77;1723487;83;20231;-79
2022/07/17 13:06:10;;;;;;;;;;;;;;;21.05;71.05;100104.87;1722600;83;20499;-80
2022/07/17 13:09:15;;;;;;;;;;;;;;;21.12;71.67;100102.22;1724083;83;20231;-80
2022/07/17 13:12:21;;;;;;;;;;;;;;;21.18;70.65;100097.61;1722955;82;20214;-80
2022/07/17 13:15:26;;;;;;;;;;;;;;;21.21;70.43;100097.64;1726783;83;20646;-79
2022/07/17 13:18:31;;;;;;;;;;;;;;;21.25;70.01;100101.06;1725620;83;20615;-80
2022/07/17 13:21:34;;;;;;;;;;;;;;;21.27;69.55;100106.39;1726926;83;20607;-79
2022/07/17 13:24:39;;;;;;;;;;;;;;;21.24;69.49;100102.71;1725269;83;20230;-79
2022/07/17 13:27:43;;;;;;;;;;;;;;;21.22;70.16;100102.10;1726177;83;20227;-79
2022/07/17 13:30:48;;;;;;;;;;;;;;;21.25;70.82;100101.61;1726655;83;20199;-80
2022/07/17 13:33:52;;;;;;;;;;;;;;;21.28;71.58;100110.30;1725234;83;20523;-79
2022/07/17 13:36:57;;;;;;;;;;;;;;;21.30;71.10;100115.05;1726702;83;20226;-80
2022/07/17 13:40:02;;;;;;;;;;;;;;;21.32;71.11;100113.47;1726940;83;20598;-80
2022/07/17 13:43:07;;;;;;;;;;;;;;;21.37;71.35;100119.95;1726870;83;20254;-80
2022/07/17 13:46:10;;;;;;;;;;;;;;;21.42;71.30;100121.98;1726886;83;20199;-80
2022/07/17 13:49:14;;;;;;;;;;;;;;;21.48;71.13;100118.17;1727045;83;20195;-79
2022/07/17 13:52:18;;;;;;;;;;;;;;;21.50;70.74;100118.78;1726980;83;20219;-79
2022/07/17 13:55:22;;;;;;;;;;;;;;;21.53;70.43;100122.98;1727122;83;20214;-80
2022/07/17 13:58:28;;;;;;;;;;;;;;;21.53;70.30;100122.98;1727029;83;20247;-80
2022/07/17 14:01:34;;;;;;;;;;;;;;;21.52;70.03;100119.91;1727087;83;20185;-80
2022/07/17 14:04:32;;;;;;;;;;;;;;;21.51;70.10;100119.63;1726780;83;20202;-80
2022/07/17 14:07:25;;;;;;;;;;;;;;;21.55;69.57;100120.27;1726326;83;20203;-79
2022/07/17 14:10:09;;;;;;;;;;;;;;;21.58;69.06;100112.77;1726931;83;20218;-80
2022/07/17 14:13:14;;;;;;;;;;;;;;;21.63;69.07;100113.41;1725021;83;20198;-80
2022/07/17 14:16:19;;;;;;;;;;;;;;;21.68;68.97;100112.09;1739803;82;20193;-80
2022/07/17 14:19:24;;;;;;;;;;;;;;;21.74;69.05;100110.23;1740424;82;20200;-80
2022/07/17 14:22:30;;;;;;;;;;;;;;;21.81;68.73;100109.52;1740676;82;20228;-80
2022/07/17 14:25:34;;;;;;;;;;;;;;;21.88;68.90;100115.21;1740421;82;20535;-80
2022/07/17 14:28:40;;;;;;;;;;;;;;;21.98;68.73;100108.11;1741788;82;20196;-81
2022/07/17 14:31:45;;;;;;;;;;;;;;;22.07;68.60;100112.98;1742288;82;20176;-81
2022/07/17 14:34:49;;;;;;;;;;;;;;;22.12;68.32;100110.85;1740405;82;20467;-80
2022/07/17 14:37:54;;;;;;;;;;;;;;;22.19;67.74;100108.15;1741029;82;20192;-80
2022/07/17 14:40:58;;;;;;;;;;;;;;;22.26;67.19;100112.72;1742081;82;20584;-81
2022/07/17 14:44:02;;;;;;;;;;;;;;;22.32;66.85;100114.45;1741098;82;20180;-80
2022/07/17 14:47:07;;;;;;;;;;;;;;;22.35;66.02;100120.92;1741774;82;20178;-81
2022/07/17 14:50:12;;;;;;;;;;;;;;;22.33;65.05;100117.53;1741855;82;20205;-80
2022/07/17 14:53:17;;;;;;;;;;;;;;;22.29;65.11;100125.55;1741127;82;20228;-80
2022/07/17 14:56:22;;;;;;;;;;;;;;;22.28;64.78;100124.43;1741907;82;20596;-81
2022/07/17 14:59:27;;;;;;;;;;;;;;;22.30;63.75;100130.57;1740873;82;20212;-78
2022/07/17 15:02:33;;;;;;;;;;;;;;;22.31;62.90;100135.06;1741189;82;20580;-81
2022/07/17 15:05:38;;;;;;;;;;;;;;;22.31;62.42;100140.64;1740227;82;20600;-80
2022/07/17 15:08:45;;;;;;;;;;;;;;;22.31;62.55;100131.73;1740837;82;20188;-80
2022/07/17 15:11:49;;;;;;;;;;;;;;;22.35;62.58;100133.45;1742113;82;20232;-79
2022/07/17 15:14:55;;;;;;;;;;;;;;;22.43;62.57;100126.02;1733625;82;20233;-80
2022/07/17 15:18:00;;;;;;;;;;;;;;;22.53;62.17;100124.75;1716461;83;20524;-80
2022/07/17 15:21:05;;;;;;;;;;;;;;;22.66;61.70;100129.94;1717407;83;20201;-80
2022/07/17 15:24:12;;;;;;;;;;;;;;;22.78;61.45;100113.08;1716058;82;20229;-80
2022/07/17 15:27:18;;;;;;;;;;;;;;;22.89;61.18;100118.24;1716762;83;20190;-79
2022/07/17 15:30:25;;;;;;;;;;;;;;;22.97;60.32;100121.96;1715941;83;20197;-80
2022/07/17 15:33:30;;;;;;;;;;;;;;;23.03;59.15;100122.30;1716414;83;20193;-81
2022/07/17 15:36:35;;;;;;;;;;;;;;;23.03;59.01;100113.92;1716214;83;20202;-79
2022/07/17 15:39:41;;;;;;;;;;;;;;;23.06;59.09;100120.94;1717452;83;20228;-80
2022/07/17 15:42:44;;;;;;;;;;;;;;;23.08;57.81;100113.14;1716703;83;20189;-80
2022/07/17 15:45:50;;;;;;;;;;;;;;;23.06;58.23;100107.84;1715801;83;20182;-80
2022/07/17 15:48:54;;;;;;;;;;;;;;;23.05;58.09;100107.52;1715862;83;20200;-80
2022/07/17 15:51:59;;;;;;;;;;;;;;;23.00;57.66;100114.44;1717306;83;20194;-80
2022/07/17 15:55:03;;;;;;;;;;;;;;;22.92;58.48;100116.33;1717403;83;20221;-80